sensor_id;sensor_type;location;lat;lon;timestamp;pressure;altitude;pressure_sealevel;temperature;humidity
18504;BME280;9381;54.244;10.074;2023-05-02T00:00:08;100933.81;;;12.35;100.00
18504;BME280;9381;54.244;10.074;2023-05-02T00:05:10;100932.75;;;12.36;100.00
18504;BME280;9381;54.244;10.074;2023-05-02T00:10:10;100936.72;;;12.40;100.00
18504;BME280;9381;54.244;10.074;2023-05-02T00:15:10;100938.81;;;12.38;100.00
18504;BME280;9381;54.244;10.074;2023-05-02T00:20:11;100932.25;;;12.46;100.00
18504;BME280;9381;54.244;10.074;2023-05-02T00:25:12;100934.31;;;12.50;100.00
18504;BME280;9381;54.244;10.074;2023-05-02T00:30:16;100942.59;;;12.37;100.00
18504;BME280;9381;54.244;10.074;2023-05-02T00:35:17;100942.13;;;12.40;100.00
18504;BME280;9381;54.244;10.074;2023-05-02T00:40:17;100942.59;;;12.37;100.00
18504;BME280;9381;54.244;10.074;2023-05-02T00:45:18;100944.00;;;12.40;100.00
18504;BME280;9381;54.244;10.074;2023-05-02T00:50:18;100943.34;;;12.44;100.00
18504;BME280;9381;54.244;10.074;2023-05-02T00:55:18;100951.66;;;12.49;100.00
18504;BME280;9381;54.244;10.074;2023-05-02T01:00:19;100946.22;;;12.49;100.00
18504;BME280;9381;54.244;10.074;2023-05-02T01:05:24;100953.22;;;12.57;100.00
18504;BME280;9381;54.244;10.074;2023-05-02T01:10:37;100944.41;;;12.61;100.00
18504;BME280;9381;54.244;10.074;2023-05-02T01:15:40;100956.94;;;12.62;100.00
18504;BME280;9381;54.244;10.074;2023-05-02T01:20:42;100963.41;;;12.61;100.00
18504;BME280;9381;54.244;10.074;2023-05-02T01:26:05;100963.97;;;12.70;100.00
18504;BME280;9381;54.244;10.074;2023-05-02T01:31:09;100971.84;;;12.53;100.00
18504;BME280;9381;54.244;10.074;2023-05-02T01:36:12;100990.63;;;12.30;100.00
18504;BME280;9381;54.244;10.074;2023-05-02T01:41:14;101002.19;;;12.19;100.00
18504;BME280;9381;54.244;10.074;2023-05-02T01:46:15;101007.41;;;11.90;100.00
18504;BME280;9381;54.244;10.074;2023-05-02T01:51:19;101022.81;;;11.59;100.00
18504;BME280;9381;54.244;10.074;2023-05-02T01:56:21;101037.00;;;11.48;100.00
18504;BME280;9381;54.244;10.074;2023-05-02T02:01:25;101068.75;;;11.28;98.22
18504;BME280;9381;54.244;10.074;2023-05-02T02:06:27;101078.59;;;10.96;94.87
18504;BME280;9381;54.244;10.074;2023-05-02T02:11:51;101101.72;;;10.60;92.79
18504;BME280;9381;54.244;10.074;2023-05-02T02:16:55;101109.59;;;10.42;93.29
18504;BME280;9381;54.244;10.074;2023-05-02T02:21:59;101117.28;;;10.32;91.44
18504;BME280;9381;54.244;10.074;2023-05-02T02:26:59;101120.59;;;10.21;93.29
18504;BME280;9381;54.244;10.074;2023-05-02T02:31:59;101129.06;;;10.05;91.03
18504;BME280;9381;54.244;10.074;2023-05-02T02:37:04;101128.94;;;9.79;91.47
18504;BME280;9381;54.244;10.074;2023-05-02T02:42:15;101157.59;;;9.73;90.98
18504;BME280;9381;54.244;10.074;2023-05-02T02:47:40;101160.44;;;9.59;91.64
18504;BME280;9381;54.244;10.074;2023-05-02T02:52:52;101166.25;;;9.56;90.55
18504;BME280;9381;54.244;10.074;2023-05-02T02:57:59;101160.00;;;9.55;89.20
18504;BME280;9381;54.244;10.074;2023-05-02T03:03:01;101177.38;;;9.46;90.92
18504;BME280;9381;54.244;10.074;2023-05-02T03:08:01;101179.03;;;9.41;90.30
18504;BME280;9381;54.244;10.074;2023-05-02T03:13:01;101191.63;;;9.34;88.83
18504;BME280;9381;54.244;10.074;2023-05-02T03:18:02;101189.34;;;9.31;88.19
18504;BME280;9381;54.244;10.074;2023-05-02T03:23:02;101206.56;;;9.30;88.89
18504;BME280;9381;54.244;10.074;2023-05-02T03:28:02;101218.53;;;9.21;89.44
18504;BME280;9381;54.244;10.074;2023-05-02T03:33:03;101227.03;;;9.18;87.13
18504;BME280;9381;54.244;10.074;2023-05-02T03:38:06;101226.63;;;9.21;86.71
18504;BME280;9381;54.244;10.074;2023-05-02T03:43:07;101236.94;;;9.11;87.81
18504;BME280;9381;54.244;10.074;2023-05-02T03:48:07;101239.50;;;8.98;85.81
18504;BME280;9381;54.244;10.074;2023-05-02T03:53:07;101242.50;;;8.82;82.84
18504;BME280;9381;54.244;10.074;2023-05-02T03:58:09;101261.09;;;8.77;84.21
18504;BME280;9381;54.244;10.074;2023-05-02T04:03:10;101258.97;;;8.72;82.24
18504;BME280;9381;54.244;10.074;2023-05-02T04:08:10;101273.78;;;8.62;82.58
18504;BME280;9381;54.244;10.074;2023-05-02T04:13:11;101282.09;;;8.61;83.61
18504;BME280;9381;54.244;10.074;2023-05-02T04:18:11;101292.31;;;8.65;82.50
18504;BME280;9381;54.244;10.074;2023-05-02T04:23:11;101292.19;;;8.73;82.56
18504;BME280;9381;54.244;10.074;2023-05-02T04:28:12;101297.19;;;8.76;81.79
18504;BME280;9381;54.244;10.074;2023-05-02T04:33:12;101304.75;;;8.87;81.88
18504;BME280;9381;54.244;10.074;2023-05-02T04:38:13;101303.16;;;8.92;81.87
18504;BME280;9381;54.244;10.074;2023-05-02T04:43:13;101315.19;;;8.90;80.98
18504;BME280;9381;54.244;10.074;2023-05-02T04:48:13;101323.13;;;8.98;80.48
18504;BME280;9381;54.244;10.074;2023-05-02T04:53:14;101328.88;;;8.88;79.63
18504;BME280;9381;54.244;10.074;2023-05-02T04:58:14;101341.31;;;8.89;80.07
18504;BME280;9381;54.244;10.074;2023-05-02T05:03:14;101348.00;;;8.93;79.85
18504;BME280;9381;54.244;10.074;2023-05-02T05:08:15;101355.72;;;8.96;81.25
18504;BME280;9381;54.244;10.074;2023-05-02T05:13:15;101368.88;;;9.06;81.21
18504;BME280;9381;54.244;10.074;2023-05-02T05:18:15;101371.00;;;9.10;80.40
18504;BME280;9381;54.244;10.074;2023-05-02T05:23:16;101369.97;;;9.11;80.99
18504;BME280;9381;54.244;10.074;2023-05-02T05:28:16;101382.50;;;8.98;79.25
18504;BME280;9381;54.244;10.074;2023-05-02T05:33:17;101379.75;;;9.12;78.39
18504;BME280;9381;54.244;10.074;2023-05-02T05:38:17;101384.97;;;9.14;79.13
18504;BME280;9381;54.244;10.074;2023-05-02T05:43:18;101390.63;;;9.19;77.94
18504;BME280;9381;54.244;10.074;2023-05-02T05:48:18;101395.22;;;9.04;75.06
18504;BME280;9381;54.244;10.074;2023-05-02T05:53:19;101401.84;;;9.01;76.35
18504;BME280;9381;54.244;10.074;2023-05-02T05:58:19;101414.84;;;9.12;76.29
18504;BME280;9381;54.244;10.074;2023-05-02T06:03:19;101425.63;;;9.12;75.42
18504;BME280;9381;54.244;10.074;2023-05-02T06:08:20;101415.56;;;9.21;73.07
18504;BME280;9381;54.244;10.074;2023-05-02T06:13:20;101432.16;;;9.18;73.52
18504;BME280;9381;54.244;10.074;2023-05-02T06:18:21;101438.22;;;9.05;71.24
18504;BME280;9381;54.244;10.074;2023-05-02T06:23:21;101448.13;;;9.19;72.16
18504;BME280;9381;54.244;10.074;2023-05-02T06:28:21;101456.69;;;9.23;72.31
18504;BME280;9381;54.244;10.074;2023-05-02T06:33:22;101465.44;;;9.25;71.23
18504;BME280;9381;54.244;10.074;2023-05-02T06:38:22;101472.22;;;9.35;70.94
18504;BME280;9381;54.244;10.074;2023-05-02T06:43:23;101479.16;;;9.44;71.51
18504;BME280;9381;54.244;10.074;2023-05-02T06:48:23;101486.56;;;9.57;70.96
18504;BME280;9381;54.244;10.074;2023-05-02T06:53:23;101490.31;;;9.77;71.18
18504;BME280;9381;54.244;10.074;2023-05-02T06:58:24;101507.03;;;9.87;70.32
18504;BME280;9381;54.244;10.074;2023-05-02T07:03:24;101506.00;;;9.88;68.32
18504;BME280;9381;54.244;10.074;2023-05-02T07:08:24;101512.63;;;9.85;68.86
18504;BME280;9381;54.244;10.074;2023-05-02T07:13:25;101521.06;;;9.97;68.73
18504;BME280;9381;54.244;10.074;2023-05-02T07:18:25;101532.88;;;9.96;67.48
18504;BME280;9381;54.244;10.074;2023-05-02T07:23:25;101531.06;;;10.17;69.79
18504;BME280;9381;54.244;10.074;2023-05-02T07:28:26;101533.22;;;10.28;66.59
18504;BME280;9381;54.244;10.074;2023-05-02T07:33:26;101547.63;;;10.35;67.22
18504;BME280;9381;54.244;10.074;2023-05-02T07:38:26;101552.06;;;10.43;65.95
18504;BME280;9381;54.244;10.074;2023-05-02T07:43:27;101561.47;;;10.47;67.19
18504;BME280;9381;54.244;10.074;2023-05-02T07:48:27;101568.41;;;10.35;64.92
18504;BME280;9381;54.244;10.074;2023-05-02T07:53:27;101568.94;;;10.24;65.48
18504;BME280;9381;54.244;10.074;2023-05-02T07:58:28;101565.59;;;10.43;65.32
18504;BME280;9381;54.244;10.074;2023-05-02T08:03:29;101573.13;;;10.75;64.60
18504;BME280;9381;54.244;10.074;2023-05-02T08:08:29;101578.53;;;11.09;65.69
18504;BME280;9381;54.244;10.074;2023-05-02T08:13:30;101573.06;;;11.30;63.21
18504;BME280;9381;54.244;10.074;2023-05-02T08:18:30;101582.97;;;11.57;64.38
18504;BME280;9381;54.244;10.074;2023-05-02T08:23:30;101582.97;;;11.57;62.20
18504;BME280;9381;54.244;10.074;2023-05-02T08:28:30;101590.56;;;11.34;61.59
18504;BME280;9381;54.244;10.074;2023-05-02T08:33:31;101598.56;;;11.54;62.01
18504;BME280;9381;54.244;10.074;2023-05-02T08:38:31;101613.91;;;11.75;60.81
18504;BME280;9381;54.244;10.074;2023-05-02T08:43:32;101612.25;;;11.80;61.55
18504;BME280;9381;54.244;10.074;2023-05-02T08:48:34;101621.09;;;12.08;62.38
18504;BME280;9381;54.244;10.074;2023-05-02T08:53:36;101624.09;;;12.39;60.36
18504;BME280;9381;54.244;10.074;2023-05-02T08:58:38;101631.22;;;12.66;58.60
18504;BME280;9381;54.244;10.074;2023-05-02T09:03:39;101635.81;;;12.59;60.36
18504;BME280;9381;54.244;10.074;2023-05-02T09:08:43;101646.88;;;12.45;59.73
18504;BME280;9381;54.244;10.074;2023-05-02T09:13:45;101653.72;;;12.41;59.19
18504;BME280;9381;54.244;10.074;2023-05-02T09:18:50;101654.03;;;12.98;59.05
18504;BME280;9381;54.244;10.074;2023-05-02T09:23:55;101666.31;;;13.00;58.29
18504;BME280;9381;54.244;10.074;2023-05-02T09:29:01;101680.94;;;12.73;58.98
18504;BME280;9381;54.244;10.074;2023-05-02T09:39:11;101679.72;;;12.95;57.76
18504;BME280;9381;54.244;10.074;2023-05-02T09:44:20;101684.53;;;13.89;57.32
18504;BME280;9381;54.244;10.074;2023-05-02T09:49:38;101681.16;;;13.94;57.23
18504;BME280;9381;54.244;10.074;2023-05-02T09:54:40;101692.59;;;13.45;56.68
18504;BME280;9381;54.244;10.074;2023-05-02T09:59:41;101701.84;;;13.18;57.68
18504;BME280;9381;54.244;10.074;2023-05-02T10:04:52;101709.38;;;13.29;58.61
18504;BME280;9381;54.244;10.074;2023-05-02T10:09:53;101716.69;;;12.96;57.27
18504;BME280;9381;54.244;10.074;2023-05-02T10:14:59;101722.69;;;12.85;57.17
18504;BME280;9381;54.244;10.074;2023-05-02T10:20:03;101720.22;;;13.42;59.34
18504;BME280;9381;54.244;10.074;2023-05-02T10:25:05;101714.81;;;13.29;56.82
18504;BME280;9381;54.244;10.074;2023-05-02T10:30:06;101726.28;;;13.18;58.63
18504;BME280;9381;54.244;10.074;2023-05-02T10:35:07;101736.47;;;12.64;57.41
18504;BME280;9381;54.244;10.074;2023-05-02T10:40:09;101739.63;;;12.74;56.13
18504;BME280;9381;54.244;10.074;2023-05-02T10:45:29;101754.28;;;13.25;55.90
18504;BME280;9381;54.244;10.074;2023-05-02T10:56:18;101752.88;;;14.12;53.47
18504;BME280;9381;54.244;10.074;2023-05-02T11:01:31;101762.41;;;13.64;54.62
18504;BME280;9381;54.244;10.074;2023-05-02T11:06:35;101764.75;;;13.61;54.41
18504;BME280;9381;54.244;10.074;2023-05-02T11:38:15;101752.75;;;18.14;45.76
18504;BME280;9381;54.244;10.074;2023-05-02T11:43:17;101752.28;;;18.84;45.43
18504;BME280;9381;54.244;10.074;2023-05-02T11:48:18;101756.66;;;18.41;41.90
18504;BME280;9381;54.244;10.074;2023-05-02T11:53:21;101771.09;;;16.92;45.48
18504;BME280;9381;54.244;10.074;2023-05-02T11:58:27;101774.41;;;16.53;48.38
18504;BME280;9381;54.244;10.074;2023-05-02T12:03:32;101783.38;;;15.82;50.24
18504;BME280;9381;54.244;10.074;2023-05-02T12:08:32;101797.56;;;15.17;50.82
18504;BME280;9381;54.244;10.074;2023-05-02T12:13:33;101805.84;;;15.04;51.46
18504;BME280;9381;54.244;10.074;2023-05-02T12:18:33;101812.84;;;15.24;50.98
18504;BME280;9381;54.244;10.074;2023-05-02T12:23:34;101816.78;;;15.28;50.55
18504;BME280;9381;54.244;10.074;2023-05-02T12:28:47;101822.31;;;15.71;51.23
18504;BME280;9381;54.244;10.074;2023-05-02T12:33:48;101821.75;;;15.87;49.18
18504;BME280;9381;54.244;10.074;2023-05-02T12:38:52;101836.91;;;15.58;50.48
18504;BME280;9381;54.244;10.074;2023-05-02T12:43:53;101829.63;;;16.37;46.95
18504;BME280;9381;54.244;10.074;2023-05-02T12:49:05;101835.22;;;15.33;49.65
18504;BME280;9381;54.244;10.074;2023-05-02T12:54:07;101842.09;;;15.42;49.89
18504;BME280;9381;54.244;10.074;2023-05-02T12:59:07;101849.28;;;15.30;50.39
18504;BME280;9381;54.244;10.074;2023-05-02T13:04:08;101834.91;;;15.10;50.28
18504;BME280;9381;54.244;10.074;2023-05-02T13:09:09;101840.94;;;16.59;48.47
18504;BME280;9381;54.244;10.074;2023-05-02T13:14:09;101840.63;;;16.49;46.68
18504;BME280;9381;54.244;10.074;2023-05-02T13:19:10;101845.22;;;16.12;47.02
18504;BME280;9381;54.244;10.074;2023-05-02T13:24:11;101832.91;;;15.61;49.05
18504;BME280;9381;54.244;10.074;2023-05-02T13:29:12;101847.03;;;16.18;47.59
18504;BME280;9381;54.244;10.074;2023-05-02T13:34:12;101848.44;;;15.85;46.19
18504;BME280;9381;54.244;10.074;2023-05-02T13:39:12;101870.69;;;14.89;48.77
18504;BME280;9381;54.244;10.074;2023-05-02T13:44:13;101869.47;;;15.16;49.37
18504;BME280;9381;54.244;10.074;2023-05-02T13:49:13;101868.81;;;15.58;49.45
18504;BME280;9381;54.244;10.074;2023-05-02T13:54:14;101870.13;;;15.49;48.87
18504;BME280;9381;54.244;10.074;2023-05-02T13:59:14;101874.47;;;15.19;50.38
18504;BME280;9381;54.244;10.074;2023-05-02T14:04:14;101866.28;;;15.32;50.79
18504;BME280;9381;54.244;10.074;2023-05-02T14:09:15;101876.19;;;15.13;51.31
18504;BME280;9381;54.244;10.074;2023-05-02T14:14:16;101884.06;;;14.97;51.51
18504;BME280;9381;54.244;10.074;2023-05-02T14:19:16;101893.66;;;15.06;52.50
18504;BME280;9381;54.244;10.074;2023-05-02T14:24:17;101897.19;;;15.13;50.77
18504;BME280;9381;54.244;10.074;2023-05-02T14:29:18;101893.50;;;14.94;50.70
18504;BME280;9381;54.244;10.074;2023-05-02T14:34:18;101892.25;;;14.40;51.74
18504;BME280;9381;54.244;10.074;2023-05-02T14:39:21;101904.56;;;14.49;51.48
18504;BME280;9381;54.244;10.074;2023-05-02T14:44:21;101907.31;;;14.36;52.24
18504;BME280;9381;54.244;10.074;2023-05-02T14:49:22;101911.25;;;14.53;52.57
18504;BME280;9381;54.244;10.074;2023-05-02T14:54:28;101927.66;;;14.34;51.02
18504;BME280;9381;54.244;10.074;2023-05-02T14:59:31;101922.63;;;14.24;52.83
18504;BME280;9381;54.244;10.074;2023-05-02T15:04:31;101921.56;;;13.93;51.81
18504;BME280;9381;54.244;10.074;2023-05-02T15:09:32;101935.59;;;14.03;52.77
18504;BME280;9381;54.244;10.074;2023-05-02T15:14:32;101932.69;;;13.98;52.91
18504;BME280;9381;54.244;10.074;2023-05-02T15:19:32;101927.66;;;14.01;52.92
18504;BME280;9381;54.244;10.074;2023-05-02T15:24:33;101931.00;;;14.03;52.75
18504;BME280;9381;54.244;10.074;2023-05-02T15:29:33;101944.56;;;13.64;53.30
18504;BME280;9381;54.244;10.074;2023-05-02T15:34:34;101953.56;;;13.71;53.54
18504;BME280;9381;54.244;10.074;2023-05-02T15:39:34;101954.59;;;13.57;53.45
18504;BME280;9381;54.244;10.074;2023-05-02T15:44:35;101960.56;;;13.20;53.67
18504;BME280;9381;54.244;10.074;2023-05-02T15:49:38;101966.00;;;13.20;53.76
18504;BME280;9381;54.244;10.074;2023-05-02T15:54:38;101969.69;;;13.00;55.22
18504;BME280;9381;54.244;10.074;2023-05-02T15:59:38;101977.34;;;12.90;56.26
18504;BME280;9381;54.244;10.074;2023-05-02T16:04:39;101969.53;;;12.80;55.46
18504;BME280;9381;54.244;10.074;2023-05-02T16:09:39;101974.69;;;12.96;54.77
18504;BME280;9381;54.244;10.074;2023-05-02T16:14:41;101977.69;;;13.21;54.13
18504;BME280;9381;54.244;10.074;2023-05-02T16:19:42;101979.06;;;12.97;54.15
18504;BME280;9381;54.244;10.074;2023-05-02T16:24:42;101977.84;;;12.72;54.24
18504;BME280;9381;54.244;10.074;2023-05-02T16:29:43;101985.38;;;12.70;53.84
18504;BME280;9381;54.244;10.074;2023-05-02T16:34:43;101979.47;;;12.60;54.58
18504;BME280;9381;54.244;10.074;2023-05-02T16:39:43;101993.25;;;12.31;54.63
18504;BME280;9381;54.244;10.074;2023-05-02T16:44:45;101996.16;;;12.57;56.48
18504;BME280;9381;54.244;10.074;2023-05-02T16:49:45;102007.19;;;12.56;57.55
18504;BME280;9381;54.244;10.074;2023-05-02T16:54:46;102011.84;;;12.34;56.43
18504;BME280;9381;54.244;10.074;2023-05-02T16:59:49;102018.06;;;12.28;57.73
18504;BME280;9381;54.244;10.074;2023-05-02T17:04:50;102014.97;;;12.31;58.24
18504;BME280;9381;54.244;10.074;2023-05-02T17:09:51;102019.66;;;12.23;58.06
18504;BME280;9381;54.244;10.074;2023-05-02T17:14:51;102018.34;;;12.12;60.45
18504;BME280;9381;54.244;10.074;2023-05-02T17:19:52;102029.84;;;11.93;60.03
18504;BME280;9381;54.244;10.074;2023-05-02T17:24:53;102026.06;;;11.88;61.94
18504;BME280;9381;54.244;10.074;2023-05-02T17:29:53;102034.38;;;11.51;62.59
18504;BME280;9381;54.244;10.074;2023-05-02T17:34:53;102036.69;;;11.68;63.24
18504;BME280;9381;54.244;10.074;2023-05-02T17:39:54;102028.03;;;11.79;60.94
18504;BME280;9381;54.244;10.074;2023-05-02T17:44:54;102034.75;;;11.83;59.70
18504;BME280;9381;54.244;10.074;2023-05-02T17:49:54;102045.31;;;11.58;58.86
18504;BME280;9381;54.244;10.074;2023-05-02T17:54:55;102038.19;;;11.57;59.66
18504;BME280;9381;54.244;10.074;2023-05-02T17:59:55;102049.25;;;11.41;59.99
18504;BME280;9381;54.244;10.074;2023-05-02T18:04:58;102053.19;;;11.24;59.96
18504;BME280;9381;54.244;10.074;2023-05-02T18:10:00;102060.47;;;11.38;61.72
18504;BME280;9381;54.244;10.074;2023-05-02T18:15:03;102066.63;;;11.32;60.91
18504;BME280;9381;54.244;10.074;2023-05-02T18:20:05;102070.31;;;11.10;61.55
18504;BME280;9381;54.244;10.074;2023-05-02T18:25:06;102079.19;;;11.04;62.05
18504;BME280;9381;54.244;10.074;2023-05-02T18:30:07;102097.47;;;11.02;62.89
18504;BME280;9381;54.244;10.074;2023-05-02T18:35:08;102098.03;;;11.12;63.02
18504;BME280;9381;54.244;10.074;2023-05-02T18:40:11;102105.47;;;10.81;61.23
18504;BME280;9381;54.244;10.074;2023-05-02T18:45:12;102092.50;;;10.76;62.73
18504;BME280;9381;54.244;10.074;2023-05-02T18:50:13;102101.47;;;10.77;62.18
18504;BME280;9381;54.244;10.074;2023-05-02T18:55:13;102100.97;;;10.59;62.28
18504;BME280;9381;54.244;10.074;2023-05-02T19:00:14;102109.28;;;10.35;64.13
18504;BME280;9381;54.244;10.074;2023-05-02T19:05:15;102099.94;;;10.23;64.05
18504;BME280;9381;54.244;10.074;2023-05-02T19:10:15;102111.03;;;10.13;65.58
18504;BME280;9381;54.244;10.074;2023-05-02T19:15:16;102112.56;;;10.08;66.07
18504;BME280;9381;54.244;10.074;2023-05-02T19:20:16;102118.19;;;9.98;66.65
18504;BME280;9381;54.244;10.074;2023-05-02T19:25:17;102128.13;;;9.98;66.65
18504;BME280;9381;54.244;10.074;2023-05-02T19:30:17;102129.69;;;9.92;67.28
18504;BME280;9381;54.244;10.074;2023-05-02T19:35:18;102149.22;;;9.72;67.88
18504;BME280;9381;54.244;10.074;2023-05-02T19:40:18;102155.31;;;9.74;67.73
18504;BME280;9381;54.244;10.074;2023-05-02T19:45:19;102148.97;;;9.59;67.86
18504;BME280;9381;54.244;10.074;2023-05-02T19:50:19;102150.72;;;9.44;68.15
18504;BME280;9381;54.244;10.074;2023-05-02T19:55:19;102155.84;;;9.31;68.93
18504;BME280;9381;54.244;10.074;2023-05-02T20:00:21;102166.97;;;9.36;68.98
18504;BME280;9381;54.244;10.074;2023-05-02T20:05:22;102164.06;;;9.37;69.70
18504;BME280;9381;54.244;10.074;2023-05-02T20:10:22;102166.78;;;9.37;69.36
18504;BME280;9381;54.244;10.074;2023-05-02T20:15:22;102178.44;;;9.38;69.26
18504;BME280;9381;54.244;10.074;2023-05-02T20:20:23;102179.78;;;9.26;69.67
18504;BME280;9381;54.244;10.074;2023-05-02T20:25:24;102179.88;;;9.10;71.19
18504;BME280;9381;54.244;10.074;2023-05-02T20:30:24;102189.16;;;8.99;72.02
18504;BME280;9381;54.244;10.074;2023-05-02T20:35:25;102181.19;;;9.06;72.12
18504;BME280;9381;54.244;10.074;2023-05-02T20:40:28;102184.94;;;8.97;72.16
18504;BME280;9381;54.244;10.074;2023-05-02T20:45:29;102192.88;;;8.98;73.17
18504;BME280;9381;54.244;10.074;2023-05-02T20:50:29;102189.66;;;8.95;74.40
18504;BME280;9381;54.244;10.074;2023-05-02T20:55:30;102186.66;;;8.90;74.65
18504;BME280;9381;54.244;10.074;2023-05-02T21:00:30;102192.88;;;8.90;74.77
18504;BME280;9381;54.244;10.074;2023-05-02T21:05:30;102199.63;;;8.86;74.76
18504;BME280;9381;54.244;10.074;2023-05-02T21:10:31;102208.75;;;8.69;75.53
18504;BME280;9381;54.244;10.074;2023-05-02T21:15:34;102213.47;;;8.60;76.10
18504;BME280;9381;54.244;10.074;2023-05-02T21:20:35;102202.47;;;8.53;76.21
18504;BME280;9381;54.244;10.074;2023-05-02T21:25:37;102211.28;;;8.55;77.15
18504;BME280;9381;54.244;10.074;2023-05-02T21:30:37;102200.13;;;8.58;76.94
18504;BME280;9381;54.244;10.074;2023-05-02T21:35:38;102206.53;;;8.49;77.13
18504;BME280;9381;54.244;10.074;2023-05-02T21:40:38;102212.59;;;8.43;77.58
18504;BME280;9381;54.244;10.074;2023-05-02T21:45:45;102210.22;;;8.32;78.24
18504;BME280;9381;54.244;10.074;2023-05-02T21:50:46;102212.38;;;8.21;79.17
18504;BME280;9381;54.244;10.074;2023-05-02T21:55:46;102214.59;;;8.25;79.25
18504;BME280;9381;54.244;10.074;2023-05-02T22:00:46;102215.53;;;8.16;79.93
18504;BME280;9381;54.244;10.074;2023-05-02T22:05:47;102216.88;;;8.04;81.00
18504;BME280;9381;54.244;10.074;2023-05-02T22:10:48;102209.28;;;8.00;81.00
18504;BME280;9381;54.244;10.074;2023-05-02T22:15:49;102218.88;;;7.94;81.13
18504;BME280;9381;54.244;10.074;2023-05-02T22:20:49;102224.22;;;7.86;82.01
18504;BME280;9381;54.244;10.074;2023-05-02T22:25:50;102227.22;;;7.75;82.61
18504;BME280;9381;54.244;10.074;2023-05-02T22:30:50;102234.78;;;7.72;82.62
18504;BME280;9381;54.244;10.074;2023-05-02T22:35:50;102232.56;;;7.67;83.49
18504;BME280;9381;54.244;10.074;2023-05-02T22:40:51;102236.59;;;7.63;84.37
18504;BME280;9381;54.244;10.074;2023-05-02T22:45:51;102237.56;;;7.54;85.14
18504;BME280;9381;54.244;10.074;2023-05-02T22:50:52;102236.22;;;7.58;85.13
18504;BME280;9381;54.244;10.074;2023-05-02T22:55:52;102240.66;;;7.67;85.54
18504;BME280;9381;54.244;10.074;2023-05-02T23:00:52;102243.84;;;7.71;84.85
18504;BME280;9381;54.244;10.074;2023-05-02T23:05:52;102240.69;;;7.75;85.29
18504;BME280;9381;54.244;10.074;2023-05-02T23:10:53;102242.31;;;7.68;85.94
18504;BME280;9381;54.244;10.074;2023-05-02T23:15:53;102238.31;;;7.72;85.79
18504;BME280;9381;54.244;10.074;2023-05-02T23:20:54;102246.03;;;7.67;85.17
18504;BME280;9381;54.244;10.074;2023-05-02T23:25:54;102252.03;;;7.61;85.89
18504;BME280;9381;54.244;10.074;2023-05-02T23:30:55;102249.69;;;7.58;85.76
18504;BME280;9381;54.244;10.074;2023-05-02T23:35:56;102268.97;;;7.46;85.20
18504;BME280;9381;54.244;10.074;2023-05-02T23:40:56;102266.22;;;7.38;85.96
18504;BME280;9381;54.244;10.074;2023-05-02T23:45:56;102268.34;;;7.26;86.60
18504;BME280;9381;54.244;10.074;2023-05-02T23:50:57;102262.19;;;7.16;86.43
18504;BME280;9381;54.244;10.074;2023-05-02T23:55:57;102261.78;;;7.03;86.79
